createdAt,value
2022-10-09T00:00:31.964Z,9.71
2022-10-09T00:02:33.817Z,9.63
2022-10-09T00:04:35.539Z,9.55
2022-10-09T00:06:37.301Z,9.51
2022-10-09T00:08:40.324Z,9.49
2022-10-09T00:10:43.369Z,9.50
2022-10-09T00:12:45.312Z,9.45
2022-10-09T00:14:47.095Z,9.46
2022-10-09T00:16:48.838Z,9.43
2022-10-09T00:18:51.826Z,9.37
2022-10-09T00:20:53.532Z,9.37
2022-10-09T00:22:55.211Z,9.28
2022-10-09T00:24:56.978Z,9.30
2022-10-09T00:26:58.692Z,9.30
2022-10-09T00:29:00.598Z,9.28
2022-10-09T00:31:05.912Z,9.19
2022-10-09T00:33:07.678Z,9.22
2022-10-09T00:35:09.541Z,9.21
2022-10-09T00:37:11.384Z,9.15
2022-10-09T00:39:13.114Z,9.19
2022-10-09T00:41:17.822Z,9.18
2022-10-09T00:43:39.643Z,9.15
2022-10-09T00:45:48.165Z,9.14
2022-10-09T00:48:11.267Z,9.13
2022-10-09T00:50:35.852Z,9.10
2022-10-09T00:52:37.760Z,9.07
2022-10-09T00:54:41.843Z,9.09
2022-10-09T00:56:44.099Z,9.03
2022-10-09T00:58:51.883Z,9.03
2022-10-09T01:00:54.016Z,8.96
2022-10-09T01:02:55.879Z,8.86
2022-10-09T01:04:57.797Z,8.96
2022-10-09T01:07:21.753Z,8.97
2022-10-09T01:09:31.015Z,8.89
2022-10-09T01:11:50.686Z,8.89
2022-10-09T01:14:04.720Z,8.80
2022-10-09T01:16:12.593Z,8.81
2022-10-09T01:18:33.945Z,8.75
2022-10-09T01:20:57.198Z,8.72
2022-10-09T01:23:13.669Z,8.70
2022-10-09T01:25:25.682Z,8.72
2022-10-09T01:27:29.095Z,8.62
2022-10-09T01:29:42.607Z,8.67
2022-10-09T01:31:48.296Z,8.64
2022-10-09T01:33:50.247Z,8.65
2022-10-09T01:35:53.688Z,8.70
2022-10-09T01:37:56.662Z,8.66
2022-10-09T01:39:59.387Z,8.60
2022-10-09T01:42:02.343Z,8.68
2022-10-09T01:44:14.569Z,8.60
2022-10-09T01:46:23.298Z,8.59
2022-10-09T01:48:25.710Z,8.63
2022-10-09T01:50:33.337Z,8.64
2022-10-09T01:52:52.179Z,8.64
2022-10-09T01:55:08.567Z,8.63
2022-10-09T01:57:14.076Z,8.48
2022-10-09T01:59:18.798Z,8.47
2022-10-09T02:01:31.362Z,8.47
2022-10-09T02:03:35.438Z,8.46
2022-10-09T02:05:39.049Z,8.44
2022-10-09T02:07:41.148Z,8.37
2022-10-09T02:09:44.264Z,8.35
2022-10-09T02:11:53.053Z,8.32
2022-10-09T02:13:55.908Z,8.33
2022-10-09T02:16:40.750Z,8.25
2022-10-09T02:19:23.496Z,8.20
2022-10-09T02:21:46.844Z,8.16
2022-10-09T02:23:51.311Z,8.21
2022-10-09T02:25:53.577Z,8.12
2022-10-09T02:27:55.978Z,8.17
2022-10-09T02:29:59.592Z,8.18
2022-10-09T02:32:01.505Z,8.22
2022-10-09T02:34:08.929Z,8.15
2022-10-09T02:36:11.039Z,8.03
2022-10-09T02:38:12.892Z,8.14
2022-10-09T02:40:15.232Z,8.15
2022-10-09T02:42:17.189Z,7.94
2022-10-09T02:44:19.176Z,8.13
2022-10-09T02:46:21.641Z,8.16
2022-10-09T02:48:23.480Z,8.09
2022-10-09T02:50:25.461Z,8.01
2022-10-09T02:52:27.390Z,8.02
2022-10-09T02:54:29.093Z,8.11
2022-10-09T02:56:32.189Z,8.03
2022-10-09T02:58:36.476Z,8.10
2022-10-09T03:00:38.788Z,8.06
2022-10-09T03:02:40.831Z,8.03
2022-10-09T03:04:42.701Z,7.97
2022-10-09T03:06:44.459Z,7.93
2022-10-09T03:08:48.421Z,7.95
2022-10-09T03:10:50.223Z,7.96
2022-10-09T03:12:52.205Z,7.88
2022-10-09T03:14:54.078Z,7.89
2022-10-09T03:16:55.824Z,7.84
2022-10-09T03:18:57.871Z,7.81
2022-10-09T03:20:59.967Z,7.86
2022-10-09T03:23:01.673Z,7.87
2022-10-09T03:25:03.543Z,7.92
2022-10-09T03:27:05.422Z,7.98
2022-10-09T03:29:07.105Z,8.08
2022-10-09T03:31:13.050Z,7.97
2022-10-09T03:33:21.680Z,8.24
2022-10-09T03:35:23.371Z,8.17
2022-10-09T03:37:25.201Z,8.17
2022-10-09T03:39:26.954Z,8.18
2022-10-09T03:41:28.666Z,8.26
2022-10-09T03:43:31.005Z,8.34
2022-10-09T03:45:32.889Z,8.38
2022-10-09T03:47:34.569Z,8.39
2022-10-09T03:49:36.408Z,8.49
2022-10-09T03:51:38.236Z,8.44
2022-10-09T03:53:39.915Z,8.46
2022-10-09T03:55:42.694Z,8.44
2022-10-09T03:57:44.514Z,8.41
2022-10-09T03:59:46.196Z,8.39
2022-10-09T04:01:48.091Z,8.42
2022-10-09T04:03:50.054Z,8.47
2022-10-09T04:05:51.750Z,8.51
2022-10-09T04:07:53.606Z,8.52
2022-10-09T04:09:55.856Z,8.40
2022-10-09T04:11:57.551Z,8.39
2022-10-09T04:13:59.874Z,8.41
2022-10-09T04:16:01.852Z,8.39
2022-10-09T04:18:03.985Z,8.40
2022-10-09T04:20:06.102Z,8.43
2022-10-09T04:22:07.893Z,8.37
2022-10-09T04:24:09.583Z,8.45
2022-10-09T04:26:12.579Z,8.51
2022-10-09T04:28:14.518Z,8.50
2022-10-09T04:30:16.446Z,8.53
2022-10-09T04:32:18.186Z,8.47
2022-10-09T04:34:20.174Z,8.44
2022-10-09T04:36:22.206Z,8.51
2022-10-09T04:38:24.831Z,8.51
2022-10-09T04:40:26.646Z,8.58
2022-10-09T04:42:28.326Z,8.69
2022-10-09T04:44:30.065Z,8.60
2022-10-09T04:46:31.970Z,8.44
2022-10-09T04:48:44.904Z,8.57
2022-10-09T04:50:47.085Z,8.61
2022-10-09T04:52:49.048Z,8.68
2022-10-09T04:54:50.964Z,8.67
2022-10-09T04:56:52.704Z,8.64
2022-10-09T04:58:54.530Z,8.48
2022-10-09T05:00:56.248Z,8.58
2022-10-09T05:02:58.033Z,8.75
2022-10-09T05:04:59.854Z,8.74
2022-10-09T05:07:01.638Z,8.66
2022-10-09T05:09:03.551Z,8.71
2022-10-09T05:11:16.640Z,8.78
2022-10-09T05:13:18.351Z,8.80
2022-10-09T05:15:20.138Z,8.88
2022-10-09T05:17:23.442Z,8.93
2022-10-09T05:19:25.493Z,8.80
2022-10-09T05:21:28.523Z,8.84
2022-10-09T05:23:30.534Z,8.81
2022-10-09T05:25:32.215Z,8.78
2022-10-09T05:27:34.042Z,8.86
2022-10-09T05:29:35.919Z,8.72
2022-10-09T05:31:37.692Z,8.79
2022-10-09T05:33:39.484Z,8.68
2022-10-09T05:35:41.359Z,8.66
2022-10-09T05:37:44.962Z,8.71
2022-10-09T05:39:46.794Z,8.75
2022-10-09T05:41:48.491Z,8.74
2022-10-09T05:43:50.236Z,8.75
2022-10-09T05:45:52.381Z,8.76
2022-10-09T05:47:54.246Z,8.70
2022-10-09T05:49:55.928Z,8.76
2022-10-09T05:51:57.629Z,8.68
2022-10-09T05:54:00.227Z,8.65
2022-10-09T05:56:17.148Z,8.73
2022-10-09T05:58:18.873Z,8.76
2022-10-09T06:00:20.589Z,8.76
2022-10-09T06:02:22.340Z,8.76
2022-10-09T06:04:24.938Z,8.93
2022-10-09T06:06:29.894Z,8.86
2022-10-09T06:08:33.086Z,8.84
2022-10-09T06:10:43.295Z,8.85
2022-10-09T06:12:45.260Z,8.80
2022-10-09T06:14:46.962Z,8.76
2022-10-09T06:16:48.811Z,8.74
2022-10-09T06:18:50.713Z,8.68
2022-10-09T06:20:57.156Z,8.81
2022-10-09T06:22:58.927Z,8.74
2022-10-09T06:25:00.606Z,8.66
2022-10-09T06:27:02.303Z,8.71
2022-10-09T06:29:04.203Z,8.63
2022-10-09T06:31:07.188Z,8.67
2022-10-09T06:33:08.877Z,8.65
2022-10-09T06:35:10.638Z,8.74
2022-10-09T06:37:12.389Z,8.77
2022-10-09T06:39:14.097Z,8.87
2022-10-09T06:41:18.259Z,8.75
2022-10-09T06:43:19.964Z,8.73
2022-10-09T06:45:21.675Z,8.83
2022-10-09T06:47:23.559Z,8.88
2022-10-09T06:49:25.315Z,8.71
2022-10-09T06:51:28.127Z,8.76
2022-10-09T06:53:30.409Z,8.78
2022-10-09T06:55:32.877Z,8.70
2022-10-09T06:57:34.617Z,8.75
2022-10-09T06:59:36.332Z,8.73
2022-10-09T07:01:38.351Z,8.99
2022-10-09T07:03:42.445Z,8.97
2022-10-09T07:05:44.199Z,9.10
2022-10-09T07:07:45.918Z,9.08
2022-10-09T07:09:47.631Z,9.06
2022-10-09T07:11:49.582Z,9.04
2022-10-09T07:13:54.255Z,9.02
2022-10-09T07:15:56.010Z,8.98
2022-10-09T07:17:57.894Z,8.91
2022-10-09T07:19:59.656Z,9.00
2022-10-09T07:22:01.526Z,9.10
2022-10-09T07:24:05.632Z,8.94
2022-10-09T07:26:20.807Z,9.26
2022-10-09T07:28:23.236Z,9.28
2022-10-09T07:30:25.192Z,9.33
2022-10-09T07:32:27.073Z,9.19
2022-10-09T07:34:28.770Z,9.31
2022-10-09T07:36:30.532Z,9.46
2022-10-09T07:38:32.432Z,9.39
2022-10-09T07:40:35.355Z,9.54
2022-10-09T07:42:37.221Z,9.44
2022-10-09T07:44:39.073Z,9.39
2022-10-09T07:46:40.810Z,9.30
2022-10-09T07:48:42.896Z,9.52
2022-10-09T07:50:44.768Z,9.35
2022-10-09T07:52:46.785Z,9.50
2022-10-09T07:54:48.699Z,9.45
2022-10-09T07:56:50.876Z,9.50
2022-10-09T07:59:04.205Z,9.49
2022-10-09T08:01:07.681Z,9.40
2022-10-09T08:03:10.587Z,9.36
2022-10-09T08:05:12.285Z,9.36
2022-10-09T08:07:14.204Z,9.42
2022-10-09T08:09:18.055Z,9.68
2022-10-09T08:11:21.290Z,9.48
2022-10-09T08:13:23.382Z,9.56
2022-10-09T08:15:25.750Z,9.56
2022-10-09T08:17:27.470Z,9.67
2022-10-09T08:19:29.406Z,9.83
2022-10-09T08:21:31.609Z,9.90
2022-10-09T08:23:33.687Z,9.96
2022-10-09T08:25:36.349Z,10.00
2022-10-09T08:27:38.280Z,9.96
2022-10-09T08:29:40.441Z,9.84
2022-10-09T08:31:42.629Z,10.03
2022-10-09T08:33:44.762Z,10.04
2022-10-09T08:35:46.611Z,10.12
2022-10-09T08:37:48.417Z,10.15
2022-10-09T08:39:50.294Z,10.27
2022-10-09T08:41:54.383Z,10.27
2022-10-09T08:44:19.463Z,10.46
2022-10-09T08:46:29.474Z,10.28
2022-10-09T08:48:39.021Z,10.42
2022-10-09T08:50:47.411Z,10.24
2022-10-09T08:52:56.654Z,10.17
2022-10-09T08:55:17.502Z,10.36
2022-10-09T08:57:21.381Z,10.54
2022-10-09T08:59:23.165Z,10.47
2022-10-09T09:01:39.258Z,10.63
2022-10-09T09:03:53.456Z,10.66
2022-10-09T09:06:03.087Z,10.46
2022-10-09T09:08:13.427Z,10.49
2022-10-09T09:10:35.507Z,10.40
2022-10-09T09:12:51.095Z,10.59
2022-10-09T09:15:38.357Z,10.74
2022-10-09T09:17:44.591Z,10.88
2022-10-09T09:20:08.052Z,10.75
2022-10-09T09:22:13.538Z,10.91
2022-10-09T09:24:19.196Z,10.94
2022-10-09T09:26:22.191Z,10.94
2022-10-09T09:28:28.828Z,11.03
2022-10-09T09:30:44.287Z,11.25
2022-10-09T09:33:11.201Z,11.02
2022-10-09T09:35:21.374Z,11.05
2022-10-09T09:37:23.520Z,11.26
2022-10-09T09:42:00.724Z,11.28
2022-10-09T09:44:02.944Z,11.19
2022-10-09T09:46:14.654Z,11.25
2022-10-09T09:48:26.698Z,11.26
2022-10-09T09:50:48.562Z,11.35
2022-10-09T09:52:56.205Z,11.14
2022-10-09T09:54:59.122Z,11.54
2022-10-09T09:57:12.336Z,11.52
2022-10-09T09:59:38.811Z,11.39
2022-10-09T10:01:40.557Z,11.34
2022-10-09T10:03:49.314Z,11.36
2022-10-09T10:05:51.338Z,11.48
2022-10-09T10:07:53.643Z,11.48
2022-10-09T10:10:26.513Z,11.43
2022-10-09T10:12:29.460Z,11.46
2022-10-09T10:14:32.601Z,11.39
2022-10-09T10:16:38.900Z,11.47
2022-10-09T10:18:43.265Z,11.39
2022-10-09T10:21:09.903Z,11.31
2022-10-09T10:23:43.069Z,11.32
2022-10-09T10:25:45.261Z,11.52
2022-10-09T10:27:50.165Z,11.45
2022-10-09T10:29:56.787Z,11.57
2022-10-09T10:32:17.226Z,11.68
2022-10-09T10:34:32.613Z,11.37
2022-10-09T10:36:34.910Z,11.41
2022-10-09T10:38:45.309Z,11.52
2022-10-09T10:40:56.996Z,11.57
2022-10-09T10:42:59.401Z,11.75
2022-10-09T10:45:10.657Z,11.72
2022-10-09T10:47:21.857Z,11.60
2022-10-09T10:49:23.562Z,11.39
2022-10-09T10:51:47.753Z,11.53
2022-10-09T10:54:19.589Z,11.76
2022-10-09T10:56:35.773Z,11.77
2022-10-09T10:58:47.908Z,11.90
2022-10-09T11:01:04.489Z,11.79
2022-10-09T11:03:34.378Z,11.93
2022-10-09T11:05:47.152Z,12.30
2022-10-09T11:08:23.097Z,12.35
2022-10-09T11:10:38.795Z,12.37
2022-10-09T11:12:52.654Z,12.28
2022-10-09T11:15:27.000Z,12.07
2022-10-09T11:17:40.496Z,12.17
2022-10-09T11:20:02.773Z,12.18
2022-10-09T11:22:38.729Z,12.09
2022-10-09T11:25:02.300Z,11.95
2022-10-09T11:27:13.435Z,12.17
2022-10-09T11:29:21.821Z,12.33
2022-10-09T11:31:33.060Z,12.21
2022-10-09T11:33:59.085Z,12.58
2022-10-09T11:36:25.922Z,12.71
2022-10-09T11:38:33.376Z,12.46
2022-10-09T11:40:40.342Z,12.44
2022-10-09T11:42:42.426Z,12.37
2022-10-09T11:45:00.985Z,12.51
2022-10-09T11:47:09.422Z,12.74
2022-10-09T11:49:23.001Z,12.65
2022-10-09T11:51:30.681Z,12.76
2022-10-09T11:53:34.497Z,12.63
2022-10-09T11:55:36.533Z,12.77
2022-10-09T11:57:38.233Z,12.85
2022-10-09T11:59:40.015Z,12.98
2022-10-09T12:01:43.546Z,12.98
2022-10-09T12:03:45.367Z,12.56
2022-10-09T12:05:49.450Z,12.39
2022-10-09T12:07:51.330Z,12.29
2022-10-09T12:09:59.865Z,12.12
2022-10-09T12:12:08.547Z,12.11
2022-10-09T12:14:23.821Z,12.12
2022-10-09T12:16:51.687Z,12.12
2022-10-09T12:18:53.866Z,12.12
2022-10-09T12:20:57.871Z,12.36
2022-10-09T12:23:26.329Z,12.18
2022-10-09T12:25:45.326Z,12.20
2022-10-09T12:27:48.404Z,12.09
2022-10-09T12:30:11.738Z,12.27
2022-10-09T12:32:18.929Z,12.43
2022-10-09T12:34:23.070Z,12.40
2022-10-09T12:36:26.273Z,12.41
2022-10-09T12:38:30.079Z,12.65
2022-10-09T12:40:33.611Z,12.63
2022-10-09T12:42:35.549Z,12.56
2022-10-09T12:44:39.500Z,12.42
2022-10-09T12:46:41.293Z,12.46
2022-10-09T12:48:43.793Z,12.49
2022-10-09T12:50:45.793Z,12.56
2022-10-09T12:52:53.622Z,12.48
2022-10-09T12:54:55.718Z,12.53
2022-10-09T12:57:00.012Z,12.58
2022-10-09T12:59:03.019Z,12.59
2022-10-09T13:01:07.697Z,12.59
2022-10-09T13:03:35.192Z,12.69
2022-10-09T13:05:42.319Z,12.60
2022-10-09T13:07:53.010Z,12.55
2022-10-09T13:10:01.145Z,12.62
2022-10-09T13:12:22.988Z,12.57
2022-10-09T13:15:20.357Z,12.76
2022-10-09T13:17:37.460Z,12.61
2022-10-09T13:19:39.245Z,12.47
2022-10-09T13:21:41.282Z,12.41
2022-10-09T13:23:43.133Z,12.29
2022-10-09T13:25:45.277Z,12.36
2022-10-09T13:27:47.375Z,12.48
2022-10-09T13:29:49.631Z,12.53
2022-10-09T13:31:51.552Z,12.50
2022-10-09T13:33:53.514Z,12.50
2022-10-09T13:35:55.232Z,12.55
2022-10-09T13:37:57.068Z,12.67
2022-10-09T13:40:00.172Z,12.57
2022-10-09T13:42:03.125Z,12.50
2022-10-09T13:44:05.028Z,12.51
2022-10-09T13:46:06.845Z,12.42
2022-10-09T13:48:08.587Z,12.33
2022-10-09T13:50:13.579Z,12.41
2022-10-09T13:52:15.449Z,12.45
2022-10-09T13:54:17.512Z,12.35
2022-10-09T13:56:19.601Z,12.15
2022-10-09T13:58:22.165Z,12.16
2022-10-09T14:00:23.967Z,12.20
2022-10-09T14:02:25.837Z,12.11
2022-10-09T14:04:29.014Z,12.02
2022-10-09T14:06:33.402Z,11.87
2022-10-09T14:08:35.115Z,11.87
2022-10-09T14:10:41.772Z,11.99
2022-10-09T14:12:43.520Z,12.14
2022-10-09T14:14:45.200Z,12.19
2022-10-09T14:16:46.979Z,12.30
2022-10-09T14:18:48.841Z,12.28
2022-10-09T14:20:50.512Z,12.16
2022-10-09T14:22:52.612Z,12.16
2022-10-09T14:24:54.377Z,12.11
2022-10-09T14:26:56.061Z,12.10
2022-10-09T14:29:01.637Z,12.14
2022-10-09T14:31:07.662Z,12.20
2022-10-09T14:33:09.843Z,12.19
2022-10-09T14:35:13.102Z,12.19
2022-10-09T14:37:29.850Z,11.99
2022-10-09T14:39:36.610Z,11.85
2022-10-09T14:41:38.418Z,11.83
2022-10-09T14:43:40.220Z,11.77
2022-10-09T14:45:42.394Z,11.86
2022-10-09T14:47:44.158Z,11.82
2022-10-09T14:49:46.644Z,11.79
2022-10-09T14:51:48.396Z,11.81
2022-10-09T14:53:50.463Z,11.86
2022-10-09T14:55:52.180Z,11.84
2022-10-09T14:57:53.862Z,11.86
2022-10-09T14:59:56.172Z,11.93
2022-10-09T15:01:57.943Z,11.97
2022-10-09T15:04:00.641Z,11.97
2022-10-09T15:06:07.578Z,11.90
2022-10-09T15:08:09.365Z,11.80
2022-10-09T15:10:11.061Z,11.81
2022-10-09T15:12:13.370Z,11.81
2022-10-09T15:14:15.215Z,11.80
2022-10-09T15:16:18.407Z,11.80
2022-10-09T15:18:20.307Z,11.78
2022-10-09T15:20:22.063Z,11.92
2022-10-09T15:22:23.752Z,11.99
2022-10-09T15:24:25.586Z,12.00
2022-10-09T15:26:29.150Z,11.92
2022-10-09T15:28:30.934Z,11.90
2022-10-09T15:30:32.855Z,11.87
2022-10-09T15:32:34.714Z,11.82
2022-10-09T15:34:40.657Z,11.77
2022-10-09T15:36:43.223Z,11.72
2022-10-09T15:38:45.123Z,11.68
2022-10-09T15:40:54.899Z,11.59
2022-10-09T15:42:56.721Z,11.52
2022-10-09T15:44:58.593Z,11.35
2022-10-09T15:47:00.272Z,11.27
2022-10-09T15:49:02.104Z,11.22
2022-10-09T15:51:05.238Z,11.16
2022-10-09T15:53:06.914Z,11.12
2022-10-09T15:55:09.007Z,11.03
2022-10-09T15:57:10.958Z,10.98
2022-10-09T15:59:13.566Z,10.82
2022-10-09T16:01:16.904Z,10.76
2022-10-09T16:03:18.975Z,10.68
2022-10-09T16:05:20.674Z,10.58
2022-10-09T16:07:22.496Z,10.48
2022-10-09T16:09:24.418Z,10.38
2022-10-09T16:11:26.963Z,10.24
2022-10-09T16:13:28.955Z,10.16
2022-10-09T16:15:30.748Z,10.04
2022-10-09T16:17:32.527Z,9.82
2022-10-09T16:19:34.312Z,9.67
2022-10-09T16:21:35.997Z,9.58
2022-10-09T16:23:38.008Z,9.55
2022-10-09T16:25:40.946Z,9.45
2022-10-09T16:27:42.669Z,9.34
2022-10-09T16:29:44.511Z,9.28
2022-10-09T16:31:46.476Z,9.19
2022-10-09T16:33:48.363Z,9.11
2022-10-09T16:35:50.220Z,9.02
2022-10-09T16:37:52.778Z,8.90
2022-10-09T16:39:54.522Z,8.78
2022-10-09T16:41:56.349Z,8.75
2022-10-09T16:43:58.309Z,8.72
2022-10-09T16:46:10.059Z,8.61
2022-10-09T16:48:11.805Z,8.55
2022-10-09T16:50:13.728Z,8.44
2022-10-09T16:52:15.452Z,8.44
2022-10-09T16:54:17.205Z,8.45
2022-10-09T16:56:21.354Z,8.35
2022-10-09T16:58:23.063Z,8.26
2022-10-09T17:00:24.827Z,8.18
2022-10-09T17:02:26.701Z,8.17
2022-10-09T17:04:28.391Z,8.12
2022-10-09T17:06:30.340Z,7.83
2022-10-09T17:08:32.120Z,8.01
2022-10-09T17:10:33.929Z,7.85
2022-10-09T17:12:35.783Z,7.78
2022-10-09T17:14:37.828Z,7.79
2022-10-09T17:16:41.275Z,7.81
2022-10-09T17:18:43.300Z,7.74
2022-10-09T17:20:45.170Z,7.65
2022-10-09T17:22:47.172Z,7.59
2022-10-09T17:24:49.501Z,7.56
2022-10-09T17:26:51.405Z,7.53
2022-10-09T17:28:53.822Z,7.52
2022-10-09T17:30:55.742Z,7.44
2022-10-09T17:32:57.506Z,7.45
2022-10-09T17:34:59.545Z,7.38
2022-10-09T17:37:01.663Z,7.41
2022-10-09T17:39:05.373Z,7.35
2022-10-09T17:41:07.729Z,7.29
2022-10-09T17:43:09.640Z,7.22
2022-10-09T17:45:12.124Z,7.19
2022-10-09T17:47:14.013Z,7.18
2022-10-09T17:49:17.231Z,7.26
2022-10-09T17:51:33.383Z,7.18
2022-10-09T17:53:35.351Z,7.11
2022-10-09T17:55:38.609Z,7.08
2022-10-09T17:57:40.483Z,7.00
2022-10-09T17:59:42.229Z,7.05
2022-10-09T18:01:44.095Z,6.96
2022-10-09T18:03:46.001Z,6.91
2022-10-09T18:05:49.756Z,6.84
2022-10-09T18:07:51.715Z,6.74
2022-10-09T18:09:53.842Z,6.62
2022-10-09T18:11:55.562Z,6.58
2022-10-09T18:13:57.833Z,6.48
2022-10-09T18:15:59.631Z,6.61
2022-10-09T18:18:01.360Z,6.49
2022-10-09T18:20:03.380Z,6.41
2022-10-09T18:22:05.223Z,6.22
2022-10-09T18:24:07.046Z,6.33
2022-10-09T18:26:10.815Z,6.32
2022-10-09T18:28:12.977Z,6.28
2022-10-09T18:30:14.827Z,6.30
2022-10-09T18:32:16.710Z,6.27
2022-10-09T18:34:18.538Z,6.26
2022-10-09T18:36:22.904Z,6.34
2022-10-09T18:38:24.753Z,6.26
2022-10-09T18:40:26.797Z,6.28
2022-10-09T18:42:28.484Z,6.23
2022-10-09T18:44:30.954Z,6.24
2022-10-09T18:46:39.613Z,6.20
2022-10-09T18:48:42.145Z,6.13
2022-10-09T18:50:44.637Z,6.06
2022-10-09T18:52:46.815Z,5.97
2022-10-09T18:54:52.408Z,6.09
2022-10-09T18:56:54.281Z,6.08
2022-10-09T18:58:56.423Z,6.03
2022-10-09T19:00:58.245Z,6.03
2022-10-09T19:03:00.030Z,6.05
2022-10-09T19:05:01.940Z,5.95
2022-10-09T19:07:03.737Z,5.91
2022-10-09T19:09:05.782Z,5.73
2022-10-09T19:11:07.624Z,5.70
2022-10-09T19:13:09.524Z,5.63
2022-10-09T19:15:12.412Z,5.65
2022-10-09T19:17:14.565Z,5.57
2022-10-09T19:19:16.441Z,5.51
2022-10-09T19:21:18.176Z,5.62
2022-10-09T19:23:20.225Z,5.61
2022-10-09T19:25:22.096Z,5.53
2022-10-09T19:27:26.553Z,5.44
2022-10-09T19:29:28.738Z,5.42
2022-10-09T19:31:30.641Z,5.40
2022-10-09T19:33:32.427Z,5.26
2022-10-09T19:35:34.355Z,5.31
2022-10-09T19:37:36.233Z,5.35
2022-10-09T19:39:37.934Z,5.25
2022-10-09T19:41:39.955Z,5.12
2022-10-09T19:43:42.610Z,5.08
2022-10-09T19:45:44.852Z,5.05
2022-10-09T19:47:50.009Z,4.98
2022-10-09T19:49:53.971Z,5.02
2022-10-09T19:51:55.893Z,4.93
2022-10-09T19:53:57.871Z,5.02
2022-10-09T19:55:59.545Z,4.93
2022-10-09T19:58:01.551Z,4.81
2022-10-09T20:00:04.806Z,4.80
2022-10-09T20:02:06.993Z,4.82
2022-10-09T20:04:10.897Z,4.83
2022-10-09T20:06:13.675Z,4.77
2022-10-09T20:08:15.492Z,4.82
2022-10-09T20:10:17.544Z,4.88
2022-10-09T20:12:19.370Z,4.91
2022-10-09T20:14:21.167Z,4.96
2022-10-09T20:16:25.970Z,4.92
2022-10-09T20:18:28.449Z,4.85
2022-10-09T20:20:31.519Z,4.90
2022-10-09T20:22:33.288Z,4.86
2022-10-09T20:24:35.052Z,4.78
2022-10-09T20:26:39.771Z,4.71
2022-10-09T20:28:47.230Z,4.71
2022-10-09T20:30:57.046Z,4.62
2022-10-09T20:32:59.490Z,4.68
2022-10-09T20:35:01.525Z,4.59
2022-10-09T20:37:03.321Z,4.58
2022-10-09T20:39:07.863Z,4.52
2022-10-09T20:41:09.767Z,4.60
2022-10-09T20:43:11.545Z,4.55
2022-10-09T20:45:13.257Z,4.56
2022-10-09T20:47:14.992Z,4.57
2022-10-09T20:49:17.003Z,4.59
2022-10-09T20:51:19.846Z,4.57
2022-10-09T20:53:21.790Z,4.53
2022-10-09T20:55:23.665Z,4.49
2022-10-09T20:57:25.415Z,4.49
2022-10-09T20:59:27.262Z,4.60
2022-10-09T21:01:29.364Z,4.65
2022-10-09T21:03:31.150Z,4.60
2022-10-09T21:05:33.200Z,4.53
2022-10-09T21:07:34.978Z,4.53
2022-10-09T21:09:37.099Z,4.41
2022-10-09T21:11:39.005Z,4.45
2022-10-09T21:13:40.798Z,4.37
2022-10-09T21:15:44.817Z,4.39
2022-10-09T21:17:46.592Z,4.34
2022-10-09T21:19:52.279Z,4.35
2022-10-09T21:21:54.054Z,4.39
2022-10-09T21:23:58.160Z,4.50
2022-10-09T21:26:00.100Z,4.48
2022-10-09T21:28:02.341Z,4.50
2022-10-09T21:30:04.600Z,4.41
2022-10-09T21:32:06.507Z,4.41
2022-10-09T21:34:08.593Z,4.29
2022-10-09T21:36:37.407Z,4.34
2022-10-09T21:38:39.615Z,4.30
2022-10-09T21:40:41.993Z,4.28
2022-10-09T21:42:43.932Z,4.34
2022-10-09T21:44:45.729Z,4.27
2022-10-09T21:46:47.471Z,4.38
2022-10-09T21:48:49.317Z,4.39
2022-10-09T21:50:51.125Z,4.29
2022-10-09T21:52:53.201Z,4.26
2022-10-09T21:54:55.095Z,4.19
2022-10-09T21:56:56.765Z,4.21
2022-10-09T21:58:58.518Z,4.22
2022-10-09T22:01:01.643Z,4.30
2022-10-09T22:03:03.715Z,4.32
2022-10-09T22:05:05.831Z,4.25
2022-10-09T22:07:07.571Z,4.24
2022-10-09T22:09:10.657Z,4.27
2022-10-09T22:11:12.685Z,4.16
2022-10-09T22:13:14.495Z,4.18
2022-10-09T22:15:16.426Z,4.19
2022-10-09T22:17:24.748Z,4.21
2022-10-09T22:19:26.496Z,4.15
2022-10-09T22:21:28.389Z,4.08
2022-10-09T22:23:30.086Z,3.98
2022-10-09T22:25:31.851Z,3.93
2022-10-09T22:27:33.648Z,3.96
2022-10-09T22:29:36.172Z,3.93
2022-10-09T22:31:37.945Z,3.85
2022-10-09T22:33:40.277Z,3.92
2022-10-09T22:35:42.015Z,3.97
2022-10-09T22:37:43.890Z,3.95
2022-10-09T22:39:45.563Z,3.86
2022-10-09T22:41:47.281Z,3.83
2022-10-09T22:43:51.755Z,3.81
2022-10-09T22:45:53.559Z,3.72
2022-10-09T22:47:55.257Z,3.62
2022-10-09T22:49:57.114Z,3.66
2022-10-09T22:51:58.850Z,3.67
2022-10-09T22:54:00.903Z,3.65
2022-10-09T22:56:13.155Z,3.67
2022-10-09T22:58:14.841Z,3.80
2022-10-09T23:00:16.614Z,3.83
2022-10-09T23:02:18.646Z,3.82
2022-10-09T23:04:21.618Z,3.92
2022-10-09T23:06:23.581Z,3.93
2022-10-09T23:08:25.302Z,3.86
2022-10-09T23:10:27.022Z,3.77
2022-10-09T23:12:28.861Z,3.88
2022-10-09T23:14:30.615Z,3.91
2022-10-09T23:16:32.706Z,3.89
2022-10-09T23:18:35.890Z,3.85
2022-10-09T23:20:37.582Z,3.91
2022-10-09T23:22:39.301Z,3.93
2022-10-09T23:24:41.173Z,3.98
2022-10-09T23:26:43.652Z,4.02
2022-10-09T23:28:50.786Z,4.01
2022-10-09T23:30:52.502Z,3.98
2022-10-09T23:32:54.213Z,4.02
2022-10-09T23:34:55.991Z,4.05
2022-10-09T23:36:57.871Z,4.09
2022-10-09T23:39:01.647Z,4.06
2022-10-09T23:41:06.408Z,4.05
2022-10-09T23:43:08.340Z,4.05
2022-10-09T23:45:10.806Z,4.14
2022-10-09T23:47:12.765Z,4.17
2022-10-09T23:49:14.517Z,4.17
2022-10-09T23:51:17.021Z,4.19
2022-10-09T23:53:19.998Z,4.17
2022-10-09T23:55:21.927Z,4.16
2022-10-09T23:57:23.651Z,4.15
2022-10-09T23:59:25.571Z,4.11
